createdAt,value
2022-12-01T00:01:06.350Z,102196.06
2022-12-01T00:03:33.623Z,102183.94
2022-12-01T00:06:10.133Z,102190.09
2022-12-01T00:08:37.190Z,102183.69
2022-12-01T00:11:10.488Z,102175.38
2022-12-01T00:13:37.746Z,102178.53
2022-12-01T00:16:17.377Z,102183.41
2022-12-01T00:18:44.475Z,102184.09
2022-12-01T00:21:15.461Z,102173.97
2022-12-01T00:23:50.597Z,102183.09
2022-12-01T00:26:18.483Z,102183.97
2022-12-01T00:28:49.965Z,102178.34
2022-12-01T00:31:16.323Z,102182.47
2022-12-01T00:33:42.878Z,102180.22
2022-12-01T00:36:09.724Z,102180.00
2022-12-01T00:38:37.253Z,102183.69
2022-12-01T00:41:04.412Z,102183.41
2022-12-01T00:43:31.030Z,102178.72
2022-12-01T00:45:57.537Z,102179.19
2022-12-01T00:48:24.445Z,102178.91
2022-12-01T00:50:54.821Z,102188.22
2022-12-01T00:53:21.645Z,102178.72
2022-12-01T00:55:48.216Z,102176.34
2022-12-01T00:58:14.803Z,102178.06
2022-12-01T01:00:42.921Z,102181.88
2022-12-01T01:03:10.782Z,102186.72
2022-12-01T01:05:39.172Z,102195.09
2022-12-01T01:08:10.656Z,102190.47
2022-12-01T01:10:40.529Z,102192.00
2022-12-01T01:13:07.053Z,102196.06
2022-12-01T01:15:34.037Z,102198.97
2022-12-01T01:18:00.990Z,102201.81
2022-12-01T01:20:27.544Z,102196.72
2022-12-01T01:22:53.999Z,102202.97
2022-12-01T01:25:20.504Z,102199.41
2022-12-01T01:27:46.957Z,102196.00
2022-12-01T01:30:13.769Z,102192.91
2022-12-01T01:32:40.299Z,102194.06
2022-12-01T01:35:07.361Z,102195.25
2022-12-01T01:37:33.896Z,102205.31
2022-12-01T01:40:00.315Z,102199.97
2022-12-01T01:42:26.798Z,102195.63
2022-12-01T01:44:56.271Z,102194.38
2022-12-01T01:47:28.323Z,102197.59
2022-12-01T01:49:57.465Z,102198.47
2022-12-01T01:52:24.622Z,102190.13
2022-12-01T01:54:55.249Z,102199.19
2022-12-01T01:57:29.109Z,102199.56
2022-12-01T02:00:01.516Z,102192.09
2022-12-01T02:02:28.083Z,102189.63
2022-12-01T02:08:28.676Z,102189.88
2022-12-01T02:11:00.814Z,102179.69
2022-12-01T02:13:44.543Z,102179.63
2022-12-01T02:16:52.538Z,102183.50
2022-12-01T02:19:52.247Z,102179.59
2022-12-01T02:22:30.352Z,102170.44
2022-12-01T02:25:19.877Z,102175.94
2022-12-01T02:28:02.944Z,102177.53
2022-12-01T02:30:35.318Z,102174.00
2022-12-01T02:33:11.916Z,102174.34
2022-12-01T02:35:50.394Z,102178.03
2022-12-01T02:38:29.673Z,102182.97
2022-12-01T02:41:16.678Z,102179.44
2022-12-01T02:44:20.170Z,102182.66
2022-12-01T02:47:12.012Z,102180.25
2022-12-01T02:49:50.635Z,102180.91
2022-12-01T02:52:18.928Z,102171.44
2022-12-01T02:54:47.079Z,102175.84
2022-12-01T02:57:15.157Z,102168.50
2022-12-01T02:59:44.582Z,102164.19
2022-12-01T03:02:19.263Z,102168.84
2022-12-01T03:05:26.613Z,102179.56
2022-12-01T03:08:29.693Z,102178.47
2022-12-01T03:10:58.390Z,102170.97
2022-12-01T03:13:51.698Z,102174.41
2022-12-01T03:16:26.298Z,102178.28
2022-12-01T03:19:00.687Z,102177.75
2022-12-01T03:21:33.648Z,102184.47
2022-12-01T03:24:08.042Z,102182.69
2022-12-01T03:26:37.584Z,102178.31
2022-12-01T03:29:09.699Z,102173.88
2022-12-01T03:31:43.366Z,102177.88
2022-12-01T03:34:18.049Z,102170.69
2022-12-01T03:36:50.147Z,102179.25
2022-12-01T03:39:25.357Z,102168.56
2022-12-01T03:42:01.127Z,102174.72
2022-12-01T03:44:43.312Z,102173.72
2022-12-01T03:47:14.682Z,102182.69
2022-12-01T03:49:41.708Z,102185.09
2022-12-01T03:52:22.437Z,102178.50
2022-12-01T03:55:05.021Z,102183.69
2022-12-01T03:58:09.603Z,102183.09
2022-12-01T04:00:36.829Z,102193.38
2022-12-01T04:03:04.817Z,102190.97
2022-12-01T04:05:33.372Z,102195.69
2022-12-01T04:08:00.209Z,102185.63
2022-12-01T04:10:26.797Z,102186.34
2022-12-01T04:12:58.987Z,102189.72
2022-12-01T04:15:27.133Z,102193.38
2022-12-01T04:17:54.114Z,102197.25
2022-12-01T04:20:20.961Z,102201.22
2022-12-01T04:22:48.606Z,102193.38
2022-12-01T04:25:15.151Z,102193.00
2022-12-01T04:27:41.863Z,102192.69
2022-12-01T04:30:09.116Z,102187.56
2022-12-01T04:32:44.380Z,102197.81
2022-12-01T04:35:12.532Z,102186.91
2022-12-01T04:37:39.682Z,102197.09
2022-12-01T04:40:07.003Z,102191.06
2022-12-01T04:42:33.534Z,102191.56
2022-12-01T04:44:59.995Z,102200.63
2022-12-01T04:47:26.455Z,102197.09
2022-12-01T04:49:53.166Z,102200.19
2022-12-01T04:52:19.600Z,102204.22
2022-12-01T04:54:46.050Z,102209.72
2022-12-01T04:57:12.556Z,102219.19
2022-12-01T04:59:39.183Z,102209.88
2022-12-01T05:02:05.788Z,102210.16
2022-12-01T05:04:33.965Z,102218.22
2022-12-01T05:07:00.500Z,102212.59
2022-12-01T05:09:26.996Z,102209.91
2022-12-01T05:11:53.615Z,102219.75
2022-12-01T05:14:20.051Z,102207.31
2022-12-01T05:16:46.904Z,102208.91
2022-12-01T05:19:31.739Z,102215.97
2022-12-01T05:21:58.212Z,102209.06
2022-12-01T05:24:24.675Z,102214.16
2022-12-01T05:26:51.117Z,102214.47
2022-12-01T05:29:17.669Z,102217.06
2022-12-01T05:31:46.191Z,102217.28
2022-12-01T05:34:12.693Z,102222.47
2022-12-01T05:36:39.105Z,102219.19
2022-12-01T05:39:05.656Z,102228.31
2022-12-01T05:41:32.222Z,102228.47
2022-12-01T05:43:58.800Z,102226.75
2022-12-01T05:46:25.359Z,102226.81
2022-12-01T05:48:51.922Z,102232.78
2022-12-01T05:51:18.420Z,102226.09
2022-12-01T05:53:44.985Z,102225.25
2022-12-01T05:56:11.444Z,102227.19
2022-12-01T05:58:44.051Z,102231.91
2022-12-01T06:01:10.879Z,102234.16
2022-12-01T06:03:37.555Z,102226.47
2022-12-01T06:06:07.332Z,102223.38
2022-12-01T06:08:36.724Z,102231.09
2022-12-01T06:11:03.437Z,102235.59
2022-12-01T06:13:30.158Z,102231.53
2022-12-01T06:16:03.046Z,102231.09
2022-12-01T06:18:37.476Z,102240.25
2022-12-01T06:21:05.896Z,102239.41
2022-12-01T06:23:32.619Z,102248.84
2022-12-01T06:26:00.557Z,102236.94
2022-12-01T06:28:30.072Z,102246.53
2022-12-01T06:31:01.279Z,102253.56
2022-12-01T06:33:29.672Z,102248.66
2022-12-01T06:36:00.514Z,102244.25
2022-12-01T06:38:33.056Z,102244.59
2022-12-01T06:41:00.364Z,102247.78
2022-12-01T06:43:27.199Z,102250.44
2022-12-01T06:45:59.461Z,102258.47
2022-12-01T06:48:28.058Z,102253.47
2022-12-01T06:51:00.396Z,102251.75
2022-12-01T06:53:28.625Z,102257.16
2022-12-01T06:56:03.828Z,102250.91
2022-12-01T06:58:32.857Z,102254.13
2022-12-01T07:01:02.891Z,102256.66
2022-12-01T07:03:32.593Z,102251.41
2022-12-01T07:06:01.174Z,102262.50
2022-12-01T07:08:32.537Z,102256.03
2022-12-01T07:11:01.136Z,102258.66
2022-12-01T07:13:33.616Z,102263.75
2022-12-01T07:16:07.210Z,102257.81
2022-12-01T07:18:40.193Z,102263.94
2022-12-01T07:21:11.947Z,102256.66
2022-12-01T07:23:38.865Z,102272.59
2022-12-01T07:26:10.305Z,102265.53
2022-12-01T07:28:36.982Z,102267.63
2022-12-01T07:31:08.485Z,102264.94
2022-12-01T07:33:40.918Z,102273.06
2022-12-01T07:36:11.924Z,102263.06
2022-12-01T07:38:39.226Z,102275.91
2022-12-01T07:41:08.095Z,102270.06
2022-12-01T07:43:35.590Z,102267.38
2022-12-01T07:46:06.473Z,102275.16
2022-12-01T07:48:33.347Z,102275.63
2022-12-01T07:50:59.964Z,102275.44
2022-12-01T07:53:29.894Z,102280.91
2022-12-01T07:55:56.719Z,102284.00
2022-12-01T07:58:26.946Z,102283.34
2022-12-01T08:01:21.381Z,102277.50
2022-12-01T08:03:55.055Z,102280.97
2022-12-01T08:06:22.771Z,102284.50
2022-12-01T08:09:19.854Z,102285.09
2022-12-01T08:12:37.051Z,102280.00
2022-12-01T08:14:37.762Z,102282.25
2022-12-01T08:17:16.663Z,102285.22
2022-12-01T08:19:52.065Z,102284.97
2022-12-01T08:22:27.000Z,102286.66
2022-12-01T08:24:53.885Z,102283.28
2022-12-01T08:27:20.793Z,102288.38
2022-12-01T08:29:47.856Z,102285.16
2022-12-01T08:32:16.151Z,102298.50
2022-12-01T08:34:43.292Z,102292.69
2022-12-01T08:37:16.365Z,102288.91
2022-12-01T08:39:43.355Z,102288.78
2022-12-01T08:42:10.370Z,102286.50
2022-12-01T08:44:36.922Z,102291.94
2022-12-01T08:47:03.495Z,102288.53
2022-12-01T08:49:30.306Z,102287.22
2022-12-01T08:51:56.916Z,102293.16
2022-12-01T08:54:23.569Z,102291.72
2022-12-01T08:56:50.354Z,102288.69
2022-12-01T08:59:17.612Z,102293.88
2022-12-01T09:01:53.609Z,102293.78
2022-12-01T09:04:26.463Z,102296.06
2022-12-01T09:07:02.516Z,102293.50
2022-12-01T09:12:35.126Z,102297.84
2022-12-01T09:15:20.638Z,102298.59
2022-12-01T09:18:08.452Z,102297.38
2022-12-01T09:20:35.391Z,102293.28
2022-12-01T09:23:04.404Z,102297.09
2022-12-01T09:25:31.085Z,102301.16
2022-12-01T09:28:13.118Z,102294.88
2022-12-01T09:30:42.105Z,102290.31
2022-12-01T09:33:09.160Z,102299.63
2022-12-01T09:35:36.455Z,102292.34
2022-12-01T09:38:12.117Z,102292.81
2022-12-01T09:40:52.628Z,102292.50
2022-12-01T09:43:40.800Z,102294.56
2022-12-01T09:46:17.372Z,102293.91
2022-12-01T09:48:56.377Z,102295.16
2022-12-01T09:51:29.048Z,102296.03
2022-12-01T09:54:03.887Z,102300.16
2022-12-01T09:56:38.453Z,102298.06
2022-12-01T09:59:12.722Z,102288.00
2022-12-01T10:02:05.115Z,102287.06
2022-12-01T10:04:55.296Z,102290.56
2022-12-01T10:07:47.841Z,102289.94
2022-12-01T10:10:20.625Z,102288.16
2022-12-01T10:12:47.447Z,102282.50
2022-12-01T10:15:32.507Z,102274.47
2022-12-01T10:18:10.451Z,102279.28
2022-12-01T10:20:48.400Z,102283.44
2022-12-01T10:23:14.947Z,102278.47
2022-12-01T10:26:10.289Z,102273.38
2022-12-01T10:29:10.554Z,102271.59
2022-12-01T10:31:58.439Z,102266.94
2022-12-01T10:34:32.268Z,102264.94
2022-12-01T10:36:59.442Z,102263.47
2022-12-01T10:39:29.482Z,102262.41
2022-12-01T10:42:29.300Z,102258.00
2022-12-01T10:44:59.119Z,102252.16
2022-12-01T10:47:26.155Z,102262.88
2022-12-01T10:49:53.352Z,102259.38
2022-12-01T10:52:37.285Z,102254.47
2022-12-01T10:55:23.456Z,102260.44
2022-12-01T10:57:51.065Z,102254.47
2022-12-01T11:00:57.454Z,102251.94
2022-12-01T11:03:21.944Z,102246.91
2022-12-01T11:05:57.619Z,102247.06
2022-12-01T11:08:46.682Z,102245.16
2022-12-01T11:11:45.429Z,102248.66
2022-12-01T11:14:21.841Z,102245.50
2022-12-01T11:16:51.947Z,102248.22
2022-12-01T11:19:26.803Z,102261.34
2022-12-01T11:21:57.870Z,102252.81
2022-12-01T11:24:42.168Z,102250.19
2022-12-01T11:27:18.601Z,102242.47
2022-12-01T11:29:49.692Z,102233.34
2022-12-01T11:32:18.438Z,102240.84
2022-12-01T11:34:52.190Z,102242.53
2022-12-01T11:37:22.159Z,102238.72
2022-12-01T11:39:51.295Z,102232.72
2022-12-01T11:42:31.174Z,102244.84
2022-12-01T11:45:27.743Z,102239.47
2022-12-01T11:48:20.558Z,102231.19
2022-12-01T11:51:05.271Z,102230.13
2022-12-01T11:53:37.973Z,102244.00
2022-12-01T11:56:19.474Z,102239.56
2022-12-01T11:58:48.315Z,102239.41
2022-12-01T12:01:51.943Z,102235.31
2022-12-01T12:04:28.058Z,102236.44
2022-12-01T12:07:19.976Z,102232.03
2022-12-01T12:09:52.688Z,102229.09
2022-12-01T12:12:48.614Z,102233.13
2022-12-01T12:15:33.488Z,102231.44
2022-12-01T12:18:26.760Z,102235.47
2022-12-01T12:21:03.016Z,102222.66
2022-12-01T12:23:41.415Z,102229.97
2022-12-01T12:26:24.934Z,102231.16
2022-12-01T12:29:13.955Z,102234.91
2022-12-01T12:32:01.755Z,102231.75
2022-12-01T12:34:52.499Z,102233.38
2022-12-01T12:37:30.557Z,102225.22
2022-12-01T12:40:22.603Z,102225.06
2022-12-01T12:42:54.979Z,102217.50
2022-12-01T12:45:29.126Z,102220.31
2022-12-01T12:47:58.908Z,102218.59
2022-12-01T12:50:44.869Z,102222.75
2022-12-01T12:53:19.944Z,102217.13
2022-12-01T12:55:52.897Z,102222.47
2022-12-01T12:58:24.277Z,102215.03
2022-12-01T13:00:59.942Z,102214.84
2022-12-01T13:03:34.726Z,102215.28
2022-12-01T13:06:25.695Z,102217.41
2022-12-01T13:09:28.702Z,102221.38
2022-12-01T13:12:15.996Z,102227.44
2022-12-01T13:14:48.674Z,102229.09
2022-12-01T13:17:47.928Z,102220.44
2022-12-01T13:20:20.901Z,102222.97
2022-12-01T13:22:49.334Z,102230.81
2022-12-01T13:25:22.207Z,102224.59
2022-12-01T13:27:50.401Z,102219.13
2022-12-01T13:30:22.931Z,102227.78
2022-12-01T13:32:57.518Z,102216.88
2022-12-01T13:35:36.555Z,102223.50
2022-12-01T13:38:30.457Z,102221.97
2022-12-01T13:41:13.806Z,102228.69
2022-12-01T13:43:57.056Z,102219.50
2022-12-01T13:46:46.937Z,102225.09
2022-12-01T13:49:34.150Z,102219.09
2022-12-01T13:52:17.893Z,102214.69
2022-12-01T13:55:13.929Z,102223.78
2022-12-01T13:57:45.200Z,102218.78
2022-12-01T14:00:47.129Z,102225.13
2022-12-01T14:03:16.819Z,102218.69
2022-12-01T14:05:59.394Z,102217.56
2022-12-01T14:08:48.977Z,102212.91
2022-12-01T14:11:21.222Z,102209.50
2022-12-01T14:13:58.686Z,102203.91
2022-12-01T14:16:25.959Z,102206.28
2022-12-01T14:18:56.233Z,102207.44
2022-12-01T14:21:44.007Z,102206.97
2022-12-01T14:24:22.280Z,102207.91
2022-12-01T14:26:49.495Z,102210.22
2022-12-01T14:29:31.835Z,102209.91
2022-12-01T14:32:05.276Z,102219.59
2022-12-01T14:34:34.989Z,102215.38
2022-12-01T14:37:20.201Z,102208.22
2022-12-01T14:39:56.418Z,102212.91
2022-12-01T14:42:52.669Z,102221.56
2022-12-01T14:45:24.403Z,102217.31
2022-12-01T14:48:02.521Z,102204.84
2022-12-01T14:50:43.530Z,102216.81
2022-12-01T14:53:22.641Z,102213.28
2022-12-01T14:56:07.869Z,102205.78
2022-12-01T14:58:34.512Z,102204.75
2022-12-01T15:01:11.326Z,102215.09
2022-12-01T15:03:43.051Z,102204.66
2022-12-01T15:06:16.676Z,102206.44
2022-12-01T15:08:53.341Z,102198.38
2022-12-01T15:11:30.295Z,102200.66
2022-12-01T15:13:57.946Z,102199.38
2022-12-01T15:16:28.963Z,102198.72
2022-12-01T15:18:56.284Z,102194.13
2022-12-01T15:21:24.279Z,102204.66
2022-12-01T15:24:01.129Z,102195.72
2022-12-01T15:26:33.734Z,102195.97
2022-12-01T15:29:28.486Z,102193.84
2022-12-01T15:32:00.189Z,102204.97
2022-12-01T15:34:39.861Z,102187.81
2022-12-01T15:37:11.821Z,102189.72
2022-12-01T15:39:46.965Z,102192.56
2022-12-01T15:42:34.826Z,102190.22
2022-12-01T15:45:19.866Z,102189.81
2022-12-01T15:47:51.880Z,102184.38
2022-12-01T15:50:44.439Z,102192.75
2022-12-01T15:53:26.585Z,102200.06
2022-12-01T15:55:59.042Z,102202.78
2022-12-01T15:58:31.537Z,102206.19
2022-12-01T16:01:04.621Z,102194.44
2022-12-01T16:03:33.816Z,102194.75
2022-12-01T16:06:00.779Z,102193.75
2022-12-01T16:08:28.260Z,102201.69
2022-12-01T16:11:15.132Z,102198.78
2022-12-01T16:13:49.485Z,102209.81
2022-12-01T16:16:28.819Z,102199.44
2022-12-01T16:18:58.178Z,102197.94
2022-12-01T16:21:27.064Z,102193.88
2022-12-01T16:24:03.038Z,102199.38
2022-12-01T16:26:30.993Z,102194.91
2022-12-01T16:28:58.374Z,102200.78
2022-12-01T16:31:26.403Z,102197.03
2022-12-01T16:34:13.974Z,102202.78
2022-12-01T16:36:45.218Z,102196.09
2022-12-01T16:39:14.071Z,102195.72
2022-12-01T16:41:44.534Z,102195.22
2022-12-01T16:44:28.091Z,102205.09
2022-12-01T16:46:55.394Z,102212.97
2022-12-01T16:49:22.549Z,102198.59
2022-12-01T16:51:55.928Z,102200.56
2022-12-01T16:54:24.435Z,102205.09
2022-12-01T16:56:51.450Z,102207.34
2022-12-01T16:59:17.987Z,102209.06
2022-12-01T17:01:44.558Z,102207.81
2022-12-01T17:04:11.290Z,102207.97
2022-12-01T17:06:38.445Z,102205.06
2022-12-01T17:09:06.109Z,102201.78
2022-12-01T17:11:33.191Z,102209.13
2022-12-01T17:13:59.840Z,102207.34
2022-12-01T17:16:26.338Z,102206.59
2022-12-01T17:18:53.041Z,102216.00
2022-12-01T17:21:19.538Z,102201.38
2022-12-01T17:23:46.126Z,102205.28
2022-12-01T17:26:15.678Z,102197.75
2022-12-01T17:28:42.240Z,102201.72
2022-12-01T17:31:09.467Z,102207.53
2022-12-01T17:33:36.750Z,102211.16
2022-12-01T17:36:09.957Z,102206.72
2022-12-01T17:38:38.165Z,102202.94
2022-12-01T17:41:09.987Z,102204.66
2022-12-01T17:43:38.151Z,102201.56
2022-12-01T17:46:06.968Z,102200.66
2022-12-01T17:48:41.258Z,102206.06
2022-12-01T17:51:09.105Z,102209.38
2022-12-01T17:53:36.929Z,102204.91
2022-12-01T17:56:08.041Z,102199.56
2022-12-01T17:58:35.001Z,102200.81
2022-12-01T18:01:01.450Z,102201.34
2022-12-01T18:03:27.991Z,102205.66
2022-12-01T18:05:58.997Z,102205.88
2022-12-01T18:08:27.117Z,102201.16
2022-12-01T18:10:54.431Z,102206.56
2022-12-01T18:13:21.981Z,102198.22
2022-12-01T18:15:49.029Z,102200.81
2022-12-01T18:18:15.673Z,102198.19
2022-12-01T18:20:43.371Z,102207.19
2022-12-01T18:23:11.523Z,102204.38
2022-12-01T18:25:39.059Z,102206.28
2022-12-01T18:28:06.413Z,102200.06
2022-12-01T18:30:34.049Z,102202.09
2022-12-01T18:33:01.436Z,102194.88
2022-12-01T18:35:31.752Z,102193.69
2022-12-01T18:37:58.796Z,102193.19
2022-12-01T18:40:25.273Z,102192.50
2022-12-01T18:42:51.905Z,102193.09
2022-12-01T18:45:21.280Z,102197.84
2022-12-01T18:47:48.218Z,102188.31
2022-12-01T18:50:14.900Z,102192.75
2022-12-01T18:52:41.365Z,102199.38
2022-12-01T18:55:08.182Z,102192.97
2022-12-01T18:57:34.845Z,102201.84
2022-12-01T19:00:01.763Z,102184.63
2022-12-01T19:02:28.291Z,102197.44
2022-12-01T19:04:54.745Z,102183.22
2022-12-01T19:07:25.210Z,102189.34
2022-12-01T19:09:55.911Z,102188.59
2022-12-01T19:12:22.366Z,102187.41
2022-12-01T19:14:49.092Z,102191.91
2022-12-01T19:17:15.751Z,102189.13
2022-12-01T19:19:42.163Z,102187.44
2022-12-01T19:22:08.655Z,102185.72
2022-12-01T19:24:35.354Z,102189.19
2022-12-01T19:27:01.786Z,102186.47
2022-12-01T19:29:28.429Z,102181.78
2022-12-01T19:31:55.448Z,102180.88
2022-12-01T19:34:22.107Z,102186.03
2022-12-01T19:36:49.844Z,102179.59
2022-12-01T19:39:16.280Z,102187.41
2022-12-01T19:41:42.915Z,102184.00
2022-12-01T19:44:10.242Z,102191.75
2022-12-01T19:46:36.730Z,102190.72
2022-12-01T19:49:03.865Z,102192.66
2022-12-01T19:51:34.939Z,102191.56
2022-12-01T19:54:01.835Z,102195.28
2022-12-01T19:56:28.989Z,102198.00
2022-12-01T19:58:57.108Z,102205.75
2022-12-01T20:01:24.147Z,102206.78
2022-12-01T20:03:52.525Z,102206.78
2022-12-01T20:06:25.527Z,102209.75
2022-12-01T20:08:52.812Z,102210.00
2022-12-01T20:11:19.321Z,102205.41
2022-12-01T20:13:46.529Z,102206.50
2022-12-01T20:16:20.992Z,102202.00
2022-12-01T20:18:48.420Z,102208.69
2022-12-01T20:21:23.739Z,102204.28
2022-12-01T20:24:01.611Z,102205.41
2022-12-01T20:26:32.161Z,102204.31
2022-12-01T20:29:01.115Z,102208.16
2022-12-01T20:31:30.023Z,102206.50
2022-12-01T20:33:58.113Z,102198.72
2022-12-01T20:36:25.264Z,102197.59
2022-12-01T20:38:51.769Z,102199.81
2022-12-01T20:41:18.247Z,102205.22
2022-12-01T20:43:45.051Z,102199.03
2022-12-01T20:46:13.232Z,102199.06
2022-12-01T20:48:40.486Z,102197.28
2022-12-01T20:51:08.145Z,102208.59
2022-12-01T20:53:35.660Z,102202.44
2022-12-01T20:56:04.322Z,102206.00
2022-12-01T20:58:37.056Z,102200.78
2022-12-01T21:01:08.891Z,102202.13
2022-12-01T21:03:35.583Z,102202.84
2022-12-01T21:06:02.871Z,102194.63
2022-12-01T21:08:29.306Z,102196.94
2022-12-01T21:10:55.733Z,102183.06
2022-12-01T21:13:39.572Z,102185.41
2022-12-01T21:16:28.985Z,102195.59
2022-12-01T21:19:01.044Z,102200.06
2022-12-01T21:21:29.895Z,102195.63
2022-12-01T21:24:08.423Z,102207.09
2022-12-01T21:26:36.545Z,102192.97
2022-12-01T21:29:15.523Z,102192.31
2022-12-01T21:31:42.003Z,102189.72
2022-12-01T21:34:17.800Z,102194.69
2022-12-01T21:36:45.502Z,102185.72
2022-12-01T21:39:15.694Z,102192.88
2022-12-01T21:41:42.145Z,102186.38
2022-12-01T21:44:17.825Z,102185.72
2022-12-01T21:46:45.374Z,102180.69
2022-12-01T21:49:21.280Z,102186.88
2022-12-01T21:51:50.374Z,102183.69
2022-12-01T21:54:20.277Z,102175.16
2022-12-01T21:56:48.587Z,102169.56
2022-12-01T21:59:24.954Z,102168.28
2022-12-01T22:01:56.291Z,102172.88
2022-12-01T22:04:29.966Z,102172.25
2022-12-01T22:06:57.961Z,102173.38
2022-12-01T22:09:33.992Z,102172.94
2022-12-01T22:12:11.731Z,102172.25
2022-12-01T22:14:39.131Z,102164.13
2022-12-01T22:17:05.501Z,102168.41
2022-12-01T22:19:34.484Z,102160.38
2022-12-01T22:22:12.957Z,102162.81
2022-12-01T22:24:39.911Z,102161.00
2022-12-01T22:27:34.093Z,102165.81
2022-12-01T22:30:06.427Z,102165.59
2022-12-01T22:33:03.644Z,102165.03
2022-12-01T22:35:43.979Z,102160.91
2022-12-01T22:38:29.106Z,102155.38
2022-12-01T22:41:05.487Z,102158.94
2022-12-01T22:43:44.675Z,102158.94
2022-12-01T22:46:30.982Z,102165.53
2022-12-01T22:49:06.614Z,102162.31
2022-12-01T22:51:47.899Z,102153.59
2022-12-01T22:54:14.265Z,102153.19
2022-12-01T22:56:44.942Z,102145.59
2022-12-01T22:59:14.474Z,102156.66
2022-12-01T23:01:54.965Z,102146.91
2022-12-01T23:04:29.205Z,102151.03
2022-12-01T23:07:00.574Z,102149.13
2022-12-01T23:09:32.165Z,102147.75
2022-12-01T23:12:04.537Z,102144.22
2022-12-01T23:14:33.351Z,102151.56
2022-12-01T23:17:06.851Z,102144.56
2022-12-01T23:19:34.539Z,102141.75
2022-12-01T23:22:01.332Z,102138.44
2022-12-01T23:24:32.408Z,102123.38
2022-12-01T23:27:00.383Z,102136.75
2022-12-01T23:29:26.819Z,102121.13
2022-12-01T23:31:53.301Z,102135.34
2022-12-01T23:34:20.052Z,102131.81
2022-12-01T23:36:49.120Z,102123.78
2022-12-01T23:39:17.716Z,102115.66
2022-12-01T23:41:51.200Z,102119.31
2022-12-01T23:44:24.798Z,102112.53
2022-12-01T23:46:55.468Z,102113.06
2022-12-01T23:49:31.253Z,102118.66
2022-12-01T23:52:00.607Z,102119.75
2022-12-01T23:54:31.527Z,102122.25
2022-12-01T23:57:01.629Z,102117.72
2022-12-01T23:59:30.015Z,102123.94
